Time;durP1;ratioP1;P1;durP2;ratioP2;P2;SDS_P1;SDS_P2;PMS_P1;PMS_P2;Temp;Humidity;BMP_temperature;BMP_pressure;BME280_temperature;BME280_humidity;BME280_pressure;Samples;Min_cycle;Max_cycle;Signal;HPM_P1;HPM_P2
2023/04/21 04:11:51;;;;;;;;;;;;;;;9.08;73.70;97729.47;5221290;23;19931;-58
2023/04/21 04:14:16;;;;;;;;;;;;;;;9.29;74.21;97727.13;4882745;29;20006;-60
2023/04/21 04:16:41;;;;;;;;;;;;;;;9.26;73.91;97730.81;4873454;29;19936;-60
2023/04/21 04:19:07;;;;;;;;;;;;;;;9.22;73.18;97737.19;4875617;29;19934;-61
2023/04/21 04:21:32;;;;;;;;;;;;;;;9.11;72.60;97729.25;4861391;29;19920;-59
2023/04/21 04:23:57;;;;;;;;;;;;;;;8.94;72.26;97732.19;4876715;29;20313;-60
2023/04/21 04:26:24;;;;;;;;;;;;;;;8.87;72.53;97733.56;4875335;29;20378;-62
2023/04/21 04:28:49;;;;;;;;;;;;;;;8.86;72.83;97737.13;4877354;29;19922;-61
2023/04/21 04:31:16;;;;;;;;;;;;;;;8.82;73.58;97744.38;4875942;29;20011;-60
2023/04/21 04:33:41;;;;;;;;;;;;;;;8.79;72.47;97734.09;4877612;29;20039;-62
2023/04/21 04:36:06;;;;;;;;;;;;;;;8.70;71.87;97732.13;4876567;29;19920;-62
2023/04/21 04:38:33;;;;;;;;;;;;;;;8.77;73.34;97731.63;4860800;29;20404;-62
2023/04/21 04:41:00;;;;;;;;;;;;;;;8.83;73.79;97729.50;4876205;29;19977;-62
2023/04/21 04:43:25;;;;;;;;;;;;;;;8.85;73.93;97722.41;4872936;29;19920;-63
2023/04/21 04:45:50;;;;;;;;;;;;;;;8.88;73.67;97727.38;4880136;29;19930;-63
2023/04/21 04:48:16;;;;;;;;;;;;;;;8.88;73.61;97725.63;4890207;29;19923;-62
2023/04/21 04:50:41;;;;;;;;;;;;;;;8.80;72.52;97731.38;4874548;29;20019;-62
2023/04/21 04:53:06;;;;;;;;;;;;;;;8.80;73.32;97731.38;4879256;29;19919;-63
2023/04/21 04:55:31;;;;;;;;;;;;;;;8.80;73.61;97731.38;4883818;29;19934;-63
2023/04/21 04:57:57;;;;;;;;;;;;;;;8.83;72.92;97732.13;4896405;29;19967;-62
2023/04/21 05:00:22;;;;;;;;;;;;;;;8.85;73.05;97730.25;4887438;29;19927;-63
2023/04/21 05:02:47;;;;;;;;;;;;;;;8.88;72.87;97730.88;4888825;29;19941;-63
2023/04/21 05:05:13;;;;;;;;;;;;;;;8.92;73.21;97734.94;4882331;29;20381;-61
2023/04/21 05:07:38;;;;;;;;;;;;;;;8.95;73.40;97728.66;4892916;29;20395;-62
2023/04/21 05:10:03;;;;;;;;;;;;;;;8.98;73.15;97733.66;4894401;29;20381;-61
2023/04/21 05:12:29;;;;;;;;;;;;;;;9.00;73.20;97729.16;4895162;29;20372;-60
2023/04/21 05:14:54;;;;;;;;;;;;;;;9.03;72.80;97727.19;4880476;29;19919;-63
2023/04/21 05:17:19;;;;;;;;;;;;;;;9.07;73.13;97737.44;4893069;29;19980;-65
2023/04/21 05:19:45;;;;;;;;;;;;;;;9.08;72.94;97742.53;4883248;29;19928;-63
2023/04/21 05:22:10;;;;;;;;;;;;;;;9.11;73.23;97738.88;4895208;29;19926;-64
2023/04/21 05:24:35;;;;;;;;;;;;;;;9.09;70.86;97736.38;4898835;29;19924;-62
2023/04/21 05:27:01;;;;;;;;;;;;;;;9.14;71.88;97739.50;4893061;29;19937;-62
2023/04/21 05:29:27;;;;;;;;;;;;;;;9.19;72.32;97737.41;4877827;29;20425;-62
2023/04/21 05:31:52;;;;;;;;;;;;;;;9.22;72.74;97750.28;4875863;29;19971;-63
2023/04/21 05:34:17;;;;;;;;;;;;;;;9.08;69.49;97755.63;4882780;29;19915;-62
2023/04/21 05:36:43;;;;;;;;;;;;;;;9.09;71.22;97757.31;4869029;29;19924;-63
2023/04/21 05:39:08;;;;;;;;;;;;;;;9.11;71.81;97758.03;4868744;29;19922;-62
2023/04/21 05:41:33;;;;;;;;;;;;;;;9.23;72.51;97754.56;4882085;29;20037;-62
2023/04/21 05:43:58;;;;;;;;;;;;;;;9.41;78.32;97746.34;4877415;29;19916;-62
2023/04/21 05:46:24;;;;;;;;;;;;;;;9.40;74.25;97740.28;4882344;29;19926;-62
2023/04/21 05:48:49;;;;;;;;;;;;;;;9.40;73.65;97742.91;4886741;29;19916;-64
2023/04/21 05:51:14;;;;;;;;;;;;;;;9.65;77.31;97749.84;4876171;29;19999;-62
2023/04/21 05:53:39;;;;;;;;;;;;;;;13.37;62.17;97740.44;4894003;29;19916;-60
2023/04/21 05:56:05;;;;;;;;;;;;;;;14.53;56.07;97747.66;4882655;29;19926;-63
2023/04/21 05:58:30;;;;;;;;;;;;;;;15.12;55.34;97740.44;4899133;29;19926;-62
2023/04/21 06:00:56;;;;;;;;;;;;;;;15.38;54.92;97741.44;4876946;29;19916;-63
2023/04/21 06:03:21;;;;;;;;;;;;;;;15.64;53.98;97735.44;4885955;29;19924;-61
2023/04/21 06:05:46;;;;;;;;;;;;;;;16.11;51.52;97740.59;4897760;29;19926;-63
2023/04/21 06:08:11;;;;;;;;;;;;;;;16.38;50.28;97748.44;4897985;29;19923;-61
2023/04/21 06:10:36;;;;;;;;;;;;;;;16.46;49.67;97749.47;4898811;29;19920;-62
2023/04/21 06:13:02;;;;;;;;;;;;;;;16.52;49.51;97748.88;4896972;29;19919;-62
2023/04/21 06:15:27;;;;;;;;;;;;;;;16.56;49.45;97744.94;4890068;29;19927;-59
2023/04/21 06:17:54;;;;;;;;;;;;;;;16.66;49.13;97740.38;4889402;29;19994;-60
2023/04/21 06:20:19;;;;;;;;;;;;;;;16.77;48.87;97740.16;4874574;29;20341;-63
2023/04/21 06:22:44;;;;;;;;;;;;;;;16.85;48.84;97731.41;4898299;29;20373;-63
2023/04/21 06:25:09;;;;;;;;;;;;;;;16.85;48.84;97737.53;4878875;29;19920;-60
2023/04/21 06:27:35;;;;;;;;;;;;;;;16.83;48.73;97747.47;4892769;29;19958;-63
2023/04/21 06:30:00;;;;;;;;;;;;;;;16.72;48.51;97733.59;4897532;29;19974;-62
2023/04/21 06:32:25;;;;;;;;;;;;;;;15.38;51.52;97730.88;4881898;29;19920;-64
2023/04/21 06:34:50;;;;;;;;;;;;;;;14.60;53.80;97734.75;4894198;29;19924;-64
2023/04/21 06:37:16;;;;;;;;;;;;;;;14.11;55.66;97741.81;4886287;29;19979;-64
2023/04/21 06:39:41;;;;;;;;;;;;;;;13.71;56.94;97745.38;4898306;29;20392;-63
2023/04/21 06:42:06;;;;;;;;;;;;;;;13.45;57.98;97743.22;4895893;29;20387;-64
2023/04/21 06:44:31;;;;;;;;;;;;;;;13.23;58.96;97738.16;4898440;29;20459;-64
2023/04/21 06:46:56;;;;;;;;;;;;;;;13.11;59.53;97741.84;4883585;29;19927;-63
2023/04/21 06:49:22;;;;;;;;;;;;;;;13.09;59.57;97743.78;4898227;29;19915;-63
2023/04/21 06:51:47;;;;;;;;;;;;;;;13.14;60.04;97741.56;4896496;29;19926;-63
2023/04/21 06:54:12;;;;;;;;;;;;;;;13.19;59.86;97744.66;4881634;29;19915;-63
2023/04/21 06:56:37;;;;;;;;;;;;;;;13.27;59.35;97745.69;4890391;29;20387;-64
2023/04/21 06:59:03;;;;;;;;;;;;;;;13.41;58.93;97748.91;4891847;29;19920;-64
2023/04/21 07:01:28;;;;;;;;;;;;;;;13.61;58.86;97747.16;4882243;29;19939;-63
2023/04/21 07:03:53;;;;;;;;;;;;;;;13.78;58.69;97739.44;4861135;29;19916;-64
2023/04/21 07:06:18;;;;;;;;;;;;;;;13.88;58.26;97747.34;4898191;29;19923;-63
2023/04/21 07:08:44;;;;;;;;;;;;;;;13.92;58.15;97748.75;4876826;29;20469;-62
2023/04/21 07:11:09;;;;;;;;;;;;;;;13.73;58.06;97751.38;4896707;29;20330;-62
2023/04/21 07:13:34;;;;;;;;;;;;;;;13.69;58.42;97752.59;4898067;29;19962;-65
2023/04/21 07:15:59;;;;;;;;;;;;;;;13.81;58.65;97753.31;4885992;29;20452;-64
2023/04/21 07:18:25;;;;;;;;;;;;;;;13.94;58.46;97746.00;4880143;29;19931;-64
2023/04/21 07:20:50;;;;;;;;;;;;;;;14.08;57.83;97742.94;4872863;29;19926;-63
2023/04/21 07:23:15;;;;;;;;;;;;;;;14.17;57.64;97747.34;4887751;29;20301;-62
2023/04/21 07:25:40;;;;;;;;;;;;;;;14.31;57.73;97742.66;4897732;29;20319;-61
2023/04/21 07:28:06;;;;;;;;;;;;;;;14.39;57.50;97740.97;4890867;29;19923;-64
2023/04/21 07:30:31;;;;;;;;;;;;;;;14.45;57.50;97739.56;4887229;29;19919;-62
2023/04/21 07:32:56;;;;;;;;;;;;;;;14.49;57.35;97741.81;4896258;29;19919;-63
2023/04/21 07:35:21;;;;;;;;;;;;;;;14.60;57.07;97732.94;4894547;29;19919;-63
2023/04/21 07:37:47;;;;;;;;;;;;;;;14.81;57.38;97739.84;4861467;29;20007;-63
2023/04/21 07:40:12;;;;;;;;;;;;;;;15.02;56.06;97732.53;4874689;29;19927;-64
2023/04/21 07:42:37;;;;;;;;;;;;;;;15.18;55.40;97730.13;4884201;29;20071;-64
2023/04/21 07:45:03;;;;;;;;;;;;;;;15.29;54.77;97729.09;4877575;29;19920;-64
2023/04/21 07:47:28;;;;;;;;;;;;;;;15.39;54.65;97735.16;4871349;29;20016;-64
2023/04/21 07:49:53;;;;;;;;;;;;;;;15.48;54.72;97743.16;4866850;29;19924;-64
2023/04/21 07:52:18;;;;;;;;;;;;;;;15.54;54.53;97732.03;4883236;29;19919;-63
2023/04/21 07:54:44;;;;;;;;;;;;;;;15.56;54.29;97730.06;4881170;29;19928;-64
2023/04/21 07:57:09;;;;;;;;;;;;;;;15.60;54.99;97723.50;4896496;29;19938;-62
2023/04/21 07:59:34;;;;;;;;;;;;;;;15.62;55.11;97724.16;4891827;29;19931;-63
2023/04/21 08:02:00;;;;;;;;;;;;;;;15.61;54.44;97718.06;4867529;29;19959;-64
2023/04/21 08:04:25;;;;;;;;;;;;;;;15.57;54.33;97723.78;4895230;29;19967;-64
2023/04/21 08:06:51;;;;;;;;;;;;;;;15.54;54.36;97727.56;4897248;29;19919;-63
2023/04/21 08:09:16;;;;;;;;;;;;;;;15.57;54.94;97724.63;4885832;29;19969;-65
2023/04/21 08:11:41;;;;;;;;;;;;;;;15.63;55.05;97726.69;4861461;29;19928;-64
2023/04/21 08:14:08;;;;;;;;;;;;;;;15.70;54.82;97726.94;4878358;29;19919;-63
2023/04/21 08:16:34;;;;;;;;;;;;;;;15.76;55.56;97715.78;4880085;29;19975;-65
2023/04/21 08:18:59;;;;;;;;;;;;;;;15.82;54.86;97720.44;4881166;29;20364;-64
2023/04/21 08:21:24;;;;;;;;;;;;;;;15.81;54.92;97710.88;4894760;29;20288;-65
2023/04/21 08:23:50;;;;;;;;;;;;;;;15.92;54.06;97722.22;4875154;29;19919;-64
2023/04/21 08:26:15;;;;;;;;;;;;;;;16.00;54.19;97714.34;4896818;29;19916;-64
2023/04/21 08:28:40;;;;;;;;;;;;;;;16.05;54.25;97709.44;4890179;29;19919;-65
2023/04/21 08:31:06;;;;;;;;;;;;;;;16.16;53.63;97701.25;4861606;29;19920;-64
2023/04/21 08:33:31;;;;;;;;;;;;;;;16.25;54.85;97710.13;4875798;29;19988;-65
2023/04/21 08:35:56;;;;;;;;;;;;;;;16.31;53.38;97710.34;4877511;29;20329;-63
2023/04/21 08:38:21;;;;;;;;;;;;;;;16.45;53.44;97711.59;4892498;29;20298;-65
2023/04/21 08:40:48;;;;;;;;;;;;;;;16.64;54.04;97710.56;4861765;29;19971;-64
2023/04/21 08:43:13;;;;;;;;;;;;;;;16.81;52.48;97707.06;4890179;29;19963;-63
2023/04/21 08:45:38;;;;;;;;;;;;;;;17.00;52.66;97705.19;4884194;29;19974;-64
2023/04/21 08:48:05;;;;;;;;;;;;;;;17.18;52.70;97703.28;4900393;29;19955;-63
2023/04/21 08:50:30;;;;;;;;;;;;;;;17.41;52.25;97697.41;4854322;29;19943;-64
2023/04/21 08:52:56;;;;;;;;;;;;;;;17.60;51.08;97702.44;4846910;29;20377;-64
2023/04/21 08:55:30;;;;;;;;;;;;;;;17.77;50.03;97709.47;4883525;29;19923;-64
2023/04/21 08:57:55;;;;;;;;;;;;;;;17.88;50.78;97710.16;4890350;29;19923;-62
2023/04/21 09:00:20;;;;;;;;;;;;;;;18.00;51.08;97692.94;4883777;29;19916;-64
2023/04/21 09:02:53;;;;;;;;;;;;;;;18.22;51.75;97697.59;4898549;29;19916;-63
2023/04/21 09:05:25;;;;;;;;;;;;;;;18.45;51.21;97702.25;4883691;29;19975;-63
2023/04/21 09:07:51;;;;;;;;;;;;;;;18.68;50.00;97697.03;4879820;29;19916;-65
2023/04/21 09:10:21;;;;;;;;;;;;;;;18.78;50.18;97697.72;4893688;29;19919;-63
2023/04/21 09:12:49;;;;;;;;;;;;;;;18.87;49.06;97698.56;4883605;29;20381;-63
2023/04/21 09:15:14;;;;;;;;;;;;;;;18.96;49.03;97690.41;4886556;29;19928;-64
2023/04/21 09:17:39;;;;;;;;;;;;;;;19.09;48.31;97694.31;4891715;29;19924;-64
2023/04/21 09:20:18;;;;;;;;;;;;;;;19.07;45.45;97689.19;4894328;29;19919;-65
2023/04/21 09:22:43;;;;;;;;;;;;;;;19.16;47.50;97696.13;4900025;29;19916;-64
2023/04/21 09:25:09;;;;;;;;;;;;;;;19.23;46.20;97693.59;4877774;29;20023;-64
2023/04/21 09:27:37;;;;;;;;;;;;;;;19.23;46.87;97690.94;4888967;29;19919;-65
2023/04/21 09:30:03;;;;;;;;;;;;;;;19.19;47.57;97695.78;4891140;29;19962;-64
2023/04/21 09:32:28;;;;;;;;;;;;;;;19.15;47.17;97696.31;4892203;29;19955;-64
2023/04/21 09:34:53;;;;;;;;;;;;;;;19.09;46.45;97697.81;4899744;29;19946;-65
2023/04/21 09:37:23;;;;;;;;;;;;;;;19.13;45.38;97701.81;4877029;29;19973;-64
2023/04/21 09:39:48;;;;;;;;;;;;;;;19.18;44.78;97701.28;4895281;29;19916;-64
2023/04/21 09:42:13;;;;;;;;;;;;;;;19.35;46.21;97699.38;4882139;29;19927;-63
2023/04/21 09:44:38;;;;;;;;;;;;;;;19.27;46.42;97694.09;4899901;29;19963;-65
2023/04/21 09:47:04;;;;;;;;;;;;;;;19.19;45.92;97693.13;4887253;29;20011;-63
2023/04/21 09:49:30;;;;;;;;;;;;;;;19.11;44.24;97698.47;4891030;29;20002;-64
2023/04/21 09:51:56;;;;;;;;;;;;;;;19.15;44.12;97693.66;4868401;29;20011;-65
2023/04/21 09:54:21;;;;;;;;;;;;;;;19.17;44.24;97691.66;4875043;29;19998;-61
2023/04/21 09:56:48;;;;;;;;;;;;;;;19.20;44.36;97691.28;4874699;29;19923;-63
2023/04/21 09:59:14;;;;;;;;;;;;;;;19.23;42.57;97692.78;4890120;29;19926;-63
2023/04/21 10:01:39;;;;;;;;;;;;;;;19.23;43.29;97692.78;4874553;29;19923;-63
2023/04/21 10:04:05;;;;;;;;;;;;;;;19.32;43.71;97687.25;4896844;29;20373;-62
2023/04/21 10:06:30;;;;;;;;;;;;;;;19.66;42.86;97686.97;4877147;29;20350;-64
2023/04/21 10:08:56;;;;;;;;;;;;;;;20.10;43.54;97681.00;4887050;29;20026;-64
2023/04/21 10:11:22;;;;;;;;;;;;;;;20.44;44.07;97687.72;4882896;29;19923;-64
2023/04/21 10:13:48;;;;;;;;;;;;;;;20.91;41.78;97669.81;4877876;29;20565;-64
2023/04/21 10:16:13;;;;;;;;;;;;;;;21.50;42.82;97680.44;4873064;29;19922;-63
2023/04/21 10:18:42;;;;;;;;;;;;;;;22.09;41.03;97668.75;4880119;29;19916;-63
2023/04/21 10:21:08;;;;;;;;;;;;;;;22.70;42.14;97671.75;4886371;29;19971;-62
2023/04/21 10:23:45;;;;;;;;;;;;;;;23.34;40.37;97660.84;4885719;29;19920;-64
2023/04/21 10:26:14;;;;;;;;;;;;;;;23.75;39.09;97649.25;4872839;29;20361;-63
2023/04/21 10:28:43;;;;;;;;;;;;;;;24.03;37.62;97650.97;4896623;29;19962;-64
2023/04/21 10:31:15;;;;;;;;;;;;;;;24.60;37.90;97652.22;4888565;29;19991;-64
2023/04/21 10:33:41;;;;;;;;;;;;;;;25.10;36.29;97644.50;4869282;29;19992;-63
2023/04/21 10:36:06;;;;;;;;;;;;;;;25.51;34.30;97654.88;4871473;29;20274;-63
2023/04/21 10:38:34;;;;;;;;;;;;;;;25.94;33.57;97648.06;4880189;29;19924;-64
2023/04/21 10:41:29;;;;;;;;;;;;;;;26.16;31.70;97638.63;4889145;29;20031;-63
2023/04/21 10:43:58;;;;;;;;;;;;;;;26.66;32.96;97635.13;4835466;29;19967;-62
2023/04/21 10:46:33;;;;;;;;;;;;;;;26.99;32.94;97635.59;4843564;29;20007;-62
2023/04/21 10:49:08;;;;;;;;;;;;;;;27.26;30.21;97631.81;4838916;29;20383;-62
2023/04/21 10:51:53;;;;;;;;;;;;;;;27.43;29.58;97620.19;4852259;29;19943;-61
2023/04/21 10:54:20;;;;;;;;;;;;;;;27.62;30.54;97620.16;4839177;29;20453;-61
2023/04/21 10:56:45;;;;;;;;;;;;;;;27.53;28.78;97616.97;4853089;29;19920;-62
2023/04/21 10:59:10;;;;;;;;;;;;;;;27.48;29.46;97627.59;4828934;29;19993;-60
2023/04/21 11:01:38;;;;;;;;;;;;;;;27.39;27.53;97615.47;4843203;29;19916;-62
2023/04/21 11:04:03;;;;;;;;;;;;;;;27.21;28.40;97610.94;4842243;29;19927;-62
2023/04/21 11:06:29;;;;;;;;;;;;;;;27.16;28.43;97606.25;4847551;29;19923;-63
2023/04/21 11:08:54;;;;;;;;;;;;;;;27.08;28.60;97614.59;4850560;29;19936;-62
2023/04/21 11:11:23;;;;;;;;;;;;;;;27.20;28.71;97601.25;4857526;29;19960;-63
2023/04/21 11:13:48;;;;;;;;;;;;;;;27.45;27.96;97601.13;4833474;29;19920;-63
2023/04/21 11:16:13;;;;;;;;;;;;;;;27.75;28.37;97600.28;4842135;29;19921;-62
2023/04/21 11:18:40;;;;;;;;;;;;;;;27.64;26.45;97591.94;4858164;29;19972;-62
2023/04/21 11:21:05;;;;;;;;;;;;;;;27.70;26.88;97598.28;4869012;29;20412;-63
2023/04/21 11:23:31;;;;;;;;;;;;;;;28.05;28.23;97594.91;4897789;29;19915;-63
2023/04/21 11:25:58;;;;;;;;;;;;;;;28.39;27.27;97596.03;4879150;29;20430;-63
2023/04/21 11:28:23;;;;;;;;;;;;;;;28.64;26.15;97590.38;4896942;29;20345;-63
2023/04/21 11:30:49;;;;;;;;;;;;;;;28.82;25.45;97584.03;4874373;29;19920;-62
2023/04/21 11:33:14;;;;;;;;;;;;;;;29.17;25.68;97580.44;4894818;29;19984;-63
2023/04/21 11:35:39;;;;;;;;;;;;;;;29.39;24.79;97578.75;4886089;29;20330;-62
2023/04/21 11:38:04;;;;;;;;;;;;;;;29.74;26.43;97585.91;4894736;29;19919;-62
2023/04/21 11:40:31;;;;;;;;;;;;;;;29.47;24.18;97585.63;4896444;29;19919;-63
2023/04/21 11:42:56;;;;;;;;;;;;;;;29.96;23.93;97576.00;4865245;29;19919;-63
2023/04/21 11:45:21;;;;;;;;;;;;;;;29.99;23.03;97572.81;4877997;29;20131;-63
2023/04/21 11:47:46;;;;;;;;;;;;;;;30.45;23.78;97584.38;4886569;29;19919;-62
2023/04/21 11:50:16;;;;;;;;;;;;;;;30.50;22.82;97579.03;4895984;29;19953;-61
2023/04/21 11:52:44;;;;;;;;;;;;;;;30.62;22.33;97570.00;4880993;29;19916;-61
2023/04/21 11:55:15;;;;;;;;;;;;;;;31.15;24.60;97573.97;4896299;29;20022;-60
2023/04/21 11:57:40;;;;;;;;;;;;;;;31.41;21.28;97569.69;4881360;29;19923;-62
2023/04/21 12:00:05;;;;;;;;;;;;;;;31.60;22.18;97560.13;4875403;29;19975;-63
2023/04/21 12:02:31;;;;;;;;;;;;;;;31.88;21.64;97559.06;4879272;29;19923;-62
2023/04/21 12:04:57;;;;;;;;;;;;;;;32.02;21.64;97562.16;4873093;29;19919;-62
2023/04/21 12:07:22;;;;;;;;;;;;;;;32.28;21.58;97557.78;4889368;29;19995;-62
2023/04/21 12:09:50;;;;;;;;;;;;;;;32.24;20.71;97555.81;4888833;29;19920;-62
2023/04/21 12:12:15;;;;;;;;;;;;;;;32.65;20.84;97556.91;4896855;29;20002;-62
2023/04/21 12:14:41;;;;;;;;;;;;;;;32.72;20.71;97549.34;4872929;29;20014;-63
2023/04/21 12:17:06;;;;;;;;;;;;;;;32.83;20.76;97556.50;4880063;29;20011;-63
2023/04/21 12:19:38;;;;;;;;;;;;;;;33.27;20.21;97545.25;4878910;29;20002;-63
2023/04/21 12:22:09;;;;;;;;;;;;;;;32.99;19.95;97543.81;4880187;29;19922;-62
2023/04/21 12:24:34;;;;;;;;;;;;;;;32.99;20.60;97535.66;4889357;29;19920;-62
2023/04/21 12:27:00;;;;;;;;;;;;;;;32.67;19.61;97551.25;4897064;29;19945;-62
2023/04/21 12:29:25;;;;;;;;;;;;;;;33.21;18.82;97540.91;4889069;29;19983;-62
2023/04/21 12:31:51;;;;;;;;;;;;;;;33.48;18.72;97531.75;4891859;29;19964;-62
2023/04/21 12:34:16;;;;;;;;;;;;;;;33.84;17.97;97538.06;4880374;29;19920;-62
2023/04/21 12:36:41;;;;;;;;;;;;;;;33.64;18.35;97527.97;4896822;29;19919;-62
2023/04/21 12:39:06;;;;;;;;;;;;;;;34.02;18.64;97534.00;4887710;29;19928;-63
2023/04/21 12:41:33;;;;;;;;;;;;;;;34.04;18.05;97534.56;4893833;29;19923;-63
2023/04/21 12:43:58;;;;;;;;;;;;;;;34.68;18.01;97531.19;4881397;29;20300;-63
2023/04/21 12:46:23;;;;;;;;;;;;;;;33.93;17.79;97535.59;4895683;29;19920;-63
2023/04/21 12:48:51;;;;;;;;;;;;;;;33.70;17.65;97531.53;4895760;29;19919;-62
2023/04/21 12:51:16;;;;;;;;;;;;;;;34.46;17.65;97530.69;4881513;29;19919;-63
2023/04/21 12:53:41;;;;;;;;;;;;;;;34.62;17.61;97526.88;4882834;29;20328;-62
2023/04/21 12:56:06;;;;;;;;;;;;;;;34.60;16.89;97517.34;4895735;29;19926;-62
2023/04/21 12:58:32;;;;;;;;;;;;;;;34.25;17.70;97527.19;4879240;29;19924;-63
2023/04/21 13:00:57;;;;;;;;;;;;;;;34.87;17.59;97522.41;4885741;29;19939;-61
2023/04/21 13:03:22;;;;;;;;;;;;;;;35.06;17.19;97520.72;4884635;29;19966;-61
2023/04/21 13:05:47;;;;;;;;;;;;;;;35.28;17.33;97519.53;4891304;29;19943;-61
2023/04/21 13:08:13;;;;;;;;;;;;;;;35.56;16.59;97526.19;4889609;29;19966;-61
2023/04/21 13:10:38;;;;;;;;;;;;;;;35.75;16.26;97524.38;4891824;29;19919;-62
2023/04/21 13:13:04;;;;;;;;;;;;;;;35.67;16.12;97525.81;4888563;29;19919;-62
2023/04/21 13:15:29;;;;;;;;;;;;;;;36.04;16.26;97521.75;4886617;29;19995;-62
2023/04/21 13:17:54;;;;;;;;;;;;;;;36.38;16.19;97518.16;4896413;29;19924;-61
2023/04/21 13:20:20;;;;;;;;;;;;;;;36.79;15.62;97517.72;4891038;29;20204;-63
2023/04/21 13:22:45;;;;;;;;;;;;;;;35.90;15.43;97515.28;4883917;29;20302;-62
2023/04/21 13:25:10;;;;;;;;;;;;;;;36.47;15.70;97516.41;4883691;29;20412;-62
2023/04/21 13:27:37;;;;;;;;;;;;;;;36.88;14.70;97512.41;4896499;29;19954;-61
2023/04/21 13:30:03;;;;;;;;;;;;;;;36.04;15.65;97513.56;4895678;29;19961;-61
2023/04/21 13:32:28;;;;;;;;;;;;;;;36.97;15.66;97507.97;4890331;29;19923;-60
2023/04/21 13:34:53;;;;;;;;;;;;;;;36.01;15.40;97508.66;4883333;29;20338;-62
2023/04/21 13:37:20;;;;;;;;;;;;;;;35.94;15.53;97516.34;4899620;29;19923;-63
2023/04/21 13:39:45;;;;;;;;;;;;;;;36.73;15.63;97505.22;4894465;29;19920;-62
2023/04/21 13:42:10;;;;;;;;;;;;;;;36.86;15.50;97509.16;4882682;29;20281;-62
2023/04/21 13:44:36;;;;;;;;;;;;;;;36.74;14.57;97509.56;4880911;29;19916;-63
2023/04/21 13:47:01;;;;;;;;;;;;;;;36.98;14.75;97507.66;4899580;29;19923;-63
2023/04/21 13:49:26;;;;;;;;;;;;;;;37.23;14.46;97502.94;4894041;29;19922;-62
2023/04/21 13:51:51;;;;;;;;;;;;;;;36.86;15.02;97507.25;4899332;29;20015;-62
2023/04/21 13:54:17;;;;;;;;;;;;;;;37.09;14.38;97502.88;4894811;29;19916;-63
2023/04/21 13:56:42;;;;;;;;;;;;;;;37.85;14.23;97511.88;4897493;29;19930;-62
2023/04/21 13:59:09;;;;;;;;;;;;;;;37.35;14.42;97495.13;4886617;29;19916;-62
2023/04/21 14:01:34;;;;;;;;;;;;;;;38.15;13.83;97498.81;4886297;29;19950;-62
2023/04/21 14:04:00;;;;;;;;;;;;;;;38.03;13.45;97484.78;4879439;29;19916;-62
2023/04/21 14:06:25;;;;;;;;;;;;;;;37.30;13.97;97490.56;4872972;29;19920;-62
2023/04/21 14:08:50;;;;;;;;;;;;;;;38.52;13.46;97492.41;4881266;29;19923;-63
2023/04/21 14:11:15;;;;;;;;;;;;;;;38.85;13.23;97487.66;4879414;29;21633;-62
2023/04/21 14:13:41;;;;;;;;;;;;;;;38.34;13.73;97485.88;4883778;29;19976;-63
2023/04/21 14:16:06;;;;;;;;;;;;;;;38.64;13.66;97498.16;4886494;29;19919;-63
2023/04/21 14:18:32;;;;;;;;;;;;;;;38.35;13.20;97479.28;4896836;29;19920;-62
2023/04/21 14:20:57;;;;;;;;;;;;;;;38.70;13.25;97482.44;4887146;29;19920;-64
2023/04/21 14:23:22;;;;;;;;;;;;;;;38.53;12.70;97471.28;4887338;29;19920;-63
2023/04/21 14:25:47;;;;;;;;;;;;;;;38.35;12.61;97473.78;4894664;29;20058;-63
2023/04/21 14:28:13;;;;;;;;;;;;;;;37.91;13.03;97455.97;4898570;29;19928;-63
2023/04/21 14:30:38;;;;;;;;;;;;;;;38.37;12.98;97462.56;4890537;29;19976;-64
2023/04/21 14:33:04;;;;;;;;;;;;;;;38.55;12.72;97463.59;4884608;29;19919;-61
2023/04/21 14:35:29;;;;;;;;;;;;;;;38.63;13.05;97460.94;4896653;29;19916;-62
2023/04/21 14:37:56;;;;;;;;;;;;;;;38.60;12.91;97455.25;4891930;29;19926;-62
2023/04/21 14:40:21;;;;;;;;;;;;;;;38.61;12.70;97451.38;4898742;29;19916;-62
2023/04/21 14:42:46;;;;;;;;;;;;;;;39.07;12.28;97447.72;4888271;29;19925;-62
2023/04/21 14:45:12;;;;;;;;;;;;;;;38.80;11.81;97443.88;4890778;29;20010;-63
2023/04/21 14:47:37;;;;;;;;;;;;;;;38.99;12.82;97443.78;4889481;29;20018;-63
2023/04/21 14:50:03;;;;;;;;;;;;;;;38.61;12.85;97445.91;4897250;29;19980;-63
2023/04/21 14:52:28;;;;;;;;;;;;;;;39.06;12.91;97435.09;4867694;29;19919;-63
2023/04/21 14:54:53;;;;;;;;;;;;;;;38.26;13.04;97445.47;4887437;29;19955;-62
2023/04/21 14:57:20;;;;;;;;;;;;;;;38.44;12.76;97441.88;4887036;29;20372;-62
2023/04/21 14:59:45;;;;;;;;;;;;;;;38.21;13.30;97438.19;4894268;29;19920;-63
2023/04/21 15:02:11;;;;;;;;;;;;;;;38.47;13.00;97446.75;4894510;29;19932;-60
2023/04/21 15:04:36;;;;;;;;;;;;;;;38.38;13.30;97437.63;4882518;29;20369;-64
2023/04/21 15:07:02;;;;;;;;;;;;;;;38.62;12.34;97436.59;4889412;29;19923;-62
2023/04/21 15:09:27;;;;;;;;;;;;;;;38.08;12.34;97438.16;4894111;29;19927;-59
2023/04/21 15:11:53;;;;;;;;;;;;;;;38.30;12.97;97438.28;4897881;29;19923;-62
2023/04/21 15:14:18;;;;;;;;;;;;;;;38.31;12.79;97439.91;4883720;29;19930;-63
2023/04/21 15:16:44;;;;;;;;;;;;;;;38.30;13.04;97435.53;4881183;29;20341;-63
2023/04/21 15:19:09;;;;;;;;;;;;;;;38.03;13.18;97430.03;4883104;29;19962;-62
2023/04/21 15:21:35;;;;;;;;;;;;;;;38.24;13.27;97432.09;4885997;29;20553;-62
2023/04/21 15:24:00;;;;;;;;;;;;;;;38.39;13.02;97424.72;4885227;29;19919;-62
2023/04/21 15:26:25;;;;;;;;;;;;;;;38.16;13.22;97429.25;4885603;29;19923;-62
2023/04/21 15:28:50;;;;;;;;;;;;;;;38.52;12.80;97429.41;4879186;29;19945;-62
2023/04/21 15:31:16;;;;;;;;;;;;;;;38.23;12.86;97422.28;4888139;29;19919;-62
2023/04/21 15:33:41;;;;;;;;;;;;;;;38.05;12.88;97420.41;4871168;29;20006;-62
2023/04/21 15:36:06;;;;;;;;;;;;;;;38.11;13.14;97410.19;4885262;29;19920;-62
2023/04/21 15:38:31;;;;;;;;;;;;;;;38.13;12.81;97403.31;4883897;29;20010;-63
2023/04/21 15:40:57;;;;;;;;;;;;;;;37.94;13.00;97411.59;4877549;29;19920;-62
2023/04/21 15:43:22;;;;;;;;;;;;;;;37.98;13.39;97412.59;4871019;29;19924;-61
2023/04/21 15:45:47;;;;;;;;;;;;;;;37.80;13.04;97404.44;4866639;29;19924;-61
2023/04/21 15:48:15;;;;;;;;;;;;;;;37.80;13.96;97404.44;4875281;29;20426;-62
2023/04/21 15:50:40;;;;;;;;;;;;;;;36.75;15.09;97404.66;4885827;29;19920;-60
2023/04/21 15:53:06;;;;;;;;;;;;;;;36.24;16.07;97402.56;4876710;29;19946;-60
2023/04/21 15:55:31;;;;;;;;;;;;;;;35.82;16.48;97404.84;4881206;29;19920;-61
2023/04/21 15:57:56;;;;;;;;;;;;;;;34.49;17.42;97407.63;4862653;29;20408;-61
2023/04/21 16:00:22;;;;;;;;;;;;;;;34.14;17.49;97405.88;4877107;29;19924;-60
2023/04/21 16:02:47;;;;;;;;;;;;;;;34.39;17.00;97397.59;4885912;29;19919;-61
2023/04/21 16:05:12;;;;;;;;;;;;;;;34.32;17.05;97397.09;4876063;29;20019;-60
2023/04/21 16:07:37;;;;;;;;;;;;;;;34.71;17.19;97394.47;4870095;29;19975;-61
2023/04/21 16:10:03;;;;;;;;;;;;;;;34.26;16.88;97399.00;4875774;29;19966;-60
2023/04/21 16:12:28;;;;;;;;;;;;;;;34.12;16.66;97395.25;4868763;29;19920;-61
2023/04/21 16:14:54;;;;;;;;;;;;;;;34.22;17.76;97403.38;4871292;29;19975;-61
2023/04/21 16:17:19;;;;;;;;;;;;;;;33.90;17.83;97400.19;4878104;29;19932;-61
2023/04/21 16:19:44;;;;;;;;;;;;;;;33.74;17.82;97396.66;4878480;29;20296;-61
2023/04/21 16:22:10;;;;;;;;;;;;;;;32.43;19.01;97398.88;4885973;29;19916;-61
2023/04/21 16:24:35;;;;;;;;;;;;;;;30.74;20.99;97401.03;4881138;29;19920;-61
2023/04/21 16:27:01;;;;;;;;;;;;;;;30.88;21.41;97395.25;4886454;29;19927;-61
2023/04/21 16:29:26;;;;;;;;;;;;;;;31.68;20.25;97388.91;4880464;29;19927;-61
2023/04/21 16:31:52;;;;;;;;;;;;;;;31.68;19.84;97388.09;4882674;29;20369;-61
2023/04/21 16:34:17;;;;;;;;;;;;;;;31.80;19.60;97380.59;4887434;29;19920;-61
2023/04/21 16:36:42;;;;;;;;;;;;;;;31.66;19.94;97380.25;4877411;29;19923;-61
2023/04/21 16:39:07;;;;;;;;;;;;;;;31.24;20.36;97382.84;4883989;29;19919;-61
2023/04/21 16:41:32;;;;;;;;;;;;;;;31.09;20.95;97380.00;4876530;29;19924;-62
2023/04/21 16:43:58;;;;;;;;;;;;;;;30.78;21.21;97384.31;4877640;29;19920;-61
2023/04/21 16:46:23;;;;;;;;;;;;;;;30.53;20.71;97382.94;4874586;29;20523;-61
2023/04/21 16:48:49;;;;;;;;;;;;;;;30.29;21.35;97382.38;4892850;29;19920;-61
2023/04/21 16:51:14;;;;;;;;;;;;;;;29.91;22.03;97394.81;4878409;29;19923;-60